createdAt,value
2023-07-22T00:02:15.009Z,99.90
2023-07-22T00:04:43.071Z,99.90
2023-07-22T00:07:11.184Z,99.90
2023-07-22T00:09:39.956Z,99.90
2023-07-22T00:12:08.790Z,99.90
2023-07-22T00:14:41.836Z,99.90
2023-07-22T00:17:10.333Z,99.90
2023-07-22T00:19:38.397Z,99.90
2023-07-22T00:22:06.531Z,99.90
2023-07-22T00:24:34.864Z,99.90
2023-07-22T00:27:03.013Z,99.90
2023-07-22T00:29:31.117Z,99.90
2023-07-22T00:32:00.572Z,99.90
2023-07-22T00:34:28.668Z,99.90
2023-07-22T00:36:56.758Z,99.90
2023-07-22T00:39:24.894Z,99.90
2023-07-22T00:41:53.015Z,99.90
2023-07-22T00:44:21.154Z,99.90
2023-07-22T00:46:49.309Z,99.90
2023-07-22T00:49:19.393Z,99.90
2023-07-22T00:51:47.493Z,99.90
2023-07-22T00:54:16.196Z,99.90
2023-07-22T00:56:45.478Z,99.90
2023-07-22T00:59:14.627Z,99.90
2023-07-22T01:01:43.104Z,99.90
2023-07-22T01:04:11.667Z,99.90
2023-07-22T01:06:41.216Z,99.90
2023-07-22T01:09:10.346Z,99.90
2023-07-22T01:11:38.528Z,99.90
2023-07-22T01:14:06.626Z,99.90
2023-07-22T01:16:34.730Z,99.90
2023-07-22T01:19:03.011Z,99.90
2023-07-22T01:21:31.842Z,99.90
2023-07-22T01:24:01.693Z,99.90
2023-07-22T01:26:29.789Z,99.90
2023-07-22T01:29:05.305Z,99.90
2023-07-22T01:31:33.487Z,99.90
2023-07-22T01:34:01.563Z,99.90
2023-07-22T01:36:29.689Z,99.90
2023-07-22T01:38:57.781Z,99.90
2023-07-22T01:41:28.605Z,99.90
2023-07-22T01:43:56.741Z,99.90
2023-07-22T01:46:25.161Z,99.90
2023-07-22T01:48:53.646Z,99.90
2023-07-22T01:51:21.743Z,99.90
2023-07-22T01:53:50.732Z,99.90
2023-07-22T01:56:19.339Z,99.90
2023-07-22T01:58:48.852Z,99.90
2023-07-22T02:01:17.426Z,99.90
2023-07-22T02:03:46.628Z,99.90
2023-07-22T02:06:14.791Z,99.90
2023-07-22T02:08:43.016Z,99.90
2023-07-22T02:11:11.096Z,99.90
2023-07-22T02:13:39.508Z,99.90
2023-07-22T02:16:12.629Z,99.90
2023-07-22T02:18:41.008Z,99.90
2023-07-22T02:21:09.086Z,99.90
2023-07-22T02:23:37.134Z,99.90
2023-07-22T02:26:05.399Z,99.90
2023-07-22T02:28:34.219Z,99.90
2023-07-22T02:31:05.235Z,99.90
2023-07-22T02:33:34.664Z,99.90
2023-07-22T02:36:02.750Z,99.90
2023-07-22T02:38:30.851Z,99.90
2023-07-22T02:41:04.493Z,99.90
2023-07-22T02:43:32.591Z,99.90
2023-07-22T02:46:03.419Z,99.90
2023-07-22T02:48:32.440Z,99.90
2023-07-22T02:51:06.655Z,99.90
2023-07-22T02:53:34.976Z,99.90
2023-07-22T02:56:03.475Z,99.90
2023-07-22T02:58:31.578Z,99.90
2023-07-22T03:01:00.002Z,99.90
2023-07-22T03:03:28.308Z,99.90
2023-07-22T03:05:56.411Z,99.90
2023-07-22T03:08:26.231Z,99.90
2023-07-22T03:10:54.357Z,99.90
2023-07-22T03:13:22.556Z,99.90
2023-07-22T03:15:50.836Z,99.90
2023-07-22T03:18:18.996Z,99.90
2023-07-22T03:20:47.173Z,99.90
2023-07-22T03:23:15.236Z,99.90
2023-07-22T03:25:44.660Z,99.90
2023-07-22T03:28:14.456Z,99.90
2023-07-22T03:30:42.597Z,99.90
2023-07-22T03:33:11.587Z,99.90
2023-07-22T03:35:39.820Z,99.90
2023-07-22T03:38:10.342Z,99.90
2023-07-22T03:40:39.214Z,99.90
2023-07-22T03:43:08.779Z,99.90
2023-07-22T03:45:36.984Z,99.90
2023-07-22T03:48:05.340Z,99.90
2023-07-22T03:50:33.617Z,99.90
2023-07-22T03:53:01.691Z,99.90
2023-07-22T03:55:29.733Z,99.90
2023-07-22T03:57:57.829Z,99.90
2023-07-22T04:00:27.298Z,99.90
2023-07-22T04:02:55.448Z,99.90
2023-07-22T04:05:23.629Z,99.90
2023-07-22T04:07:51.838Z,99.90
2023-07-22T04:10:20.050Z,99.90
2023-07-22T04:12:48.172Z,99.90
2023-07-22T04:15:16.533Z,99.90
2023-07-22T04:17:46.087Z,99.90
2023-07-22T04:20:14.228Z,99.90
2023-07-22T04:22:42.495Z,99.90
2023-07-22T04:25:11.246Z,99.90
2023-07-22T04:27:39.542Z,99.90
2023-07-22T04:30:08.917Z,99.90
2023-07-22T04:32:37.071Z,99.90
2023-07-22T04:35:07.949Z,99.90
2023-07-22T04:37:36.596Z,99.90
2023-07-22T04:40:09.650Z,99.90
2023-07-22T04:42:37.840Z,99.90
2023-07-22T04:45:07.461Z,99.90
2023-07-22T04:47:35.548Z,99.90
2023-07-22T04:50:04.206Z,99.90
2023-07-22T04:52:33.616Z,99.90
2023-07-22T04:55:01.690Z,99.90
2023-07-22T04:57:29.814Z,99.90
2023-07-22T04:59:57.913Z,99.90
2023-07-22T05:02:26.093Z,99.90
2023-07-22T05:04:54.263Z,99.90
2023-07-22T05:07:22.638Z,99.90
2023-07-22T05:09:52.518Z,99.90
2023-07-22T05:12:20.755Z,99.90
2023-07-22T05:14:48.850Z,99.90
2023-07-22T05:17:17.085Z,99.90
2023-07-22T05:19:45.612Z,99.90
2023-07-22T05:22:13.730Z,99.90
2023-07-22T05:24:41.810Z,99.90
2023-07-22T05:27:11.224Z,99.90
2023-07-22T05:29:39.300Z,99.90
2023-07-22T05:32:16.990Z,99.90
2023-07-22T05:34:55.859Z,99.90
2023-07-22T05:37:23.973Z,99.90
2023-07-22T05:39:52.082Z,99.90
2023-07-22T05:42:21.555Z,99.90
2023-07-22T05:44:50.290Z,99.90
2023-07-22T05:47:19.432Z,99.90
2023-07-22T05:49:47.858Z,99.90
2023-07-22T05:52:15.949Z,99.90
2023-07-22T05:54:44.002Z,99.90
2023-07-22T05:57:12.104Z,99.90
2023-07-22T05:59:41.685Z,99.90
2023-07-22T06:02:11.526Z,99.90
2023-07-22T06:04:40.101Z,99.90
2023-07-22T06:07:08.227Z,99.90
2023-07-22T06:09:36.812Z,99.90
2023-07-22T06:12:05.501Z,99.90
2023-07-22T06:14:33.824Z,99.90
2023-07-22T06:17:03.621Z,99.90
2023-07-22T06:19:31.821Z,99.90
2023-07-22T06:21:59.845Z,99.90
2023-07-22T06:24:27.971Z,99.90
2023-07-22T06:26:56.099Z,99.90
2023-07-22T06:29:24.269Z,99.90
2023-07-22T06:31:52.426Z,99.90
2023-07-22T06:34:21.970Z,99.90
2023-07-22T06:36:50.273Z,99.90
2023-07-22T06:39:18.333Z,99.90
2023-07-22T06:41:46.350Z,99.90
2023-07-22T06:44:14.433Z,99.90
2023-07-22T06:46:44.924Z,99.90
2023-07-22T06:49:13.218Z,99.90
2023-07-22T06:51:42.832Z,99.90
2023-07-22T06:54:10.930Z,99.90
2023-07-22T06:56:39.049Z,99.90
2023-07-22T06:59:07.181Z,99.90
2023-07-22T07:01:37.904Z,99.90
2023-07-22T07:04:06.609Z,99.90
2023-07-22T07:06:34.892Z,99.90
2023-07-22T07:09:04.740Z,99.90
2023-07-22T07:11:32.808Z,99.90
2023-07-22T07:14:01.159Z,99.90
2023-07-22T07:16:30.817Z,99.90
2023-07-22T07:18:59.794Z,99.90
2023-07-22T07:21:28.271Z,99.90
2023-07-22T07:23:57.132Z,99.90
2023-07-22T07:26:26.721Z,99.90
2023-07-22T07:28:55.407Z,99.90
2023-07-22T07:31:23.568Z,99.90
2023-07-22T07:33:52.351Z,99.90
2023-07-22T07:36:20.401Z,99.90
2023-07-22T07:38:48.588Z,99.90
2023-07-22T07:41:16.954Z,99.90
2023-07-22T07:43:46.386Z,99.90
2023-07-22T07:46:18.700Z,99.90
2023-07-22T07:48:47.786Z,99.90
2023-07-22T07:51:16.785Z,99.90
2023-07-22T07:53:45.907Z,99.90
2023-07-22T07:56:14.161Z,99.90
2023-07-22T07:58:42.598Z,99.90
2023-07-22T08:01:12.279Z,99.90
2023-07-22T08:03:41.387Z,99.90
2023-07-22T08:06:09.531Z,99.90
2023-07-22T08:08:37.983Z,99.90
2023-07-22T08:11:08.771Z,99.90
2023-07-22T08:13:37.201Z,99.90
2023-07-22T08:16:06.441Z,99.90
2023-07-22T08:18:36.887Z,99.90
2023-07-22T08:21:06.448Z,99.90
2023-07-22T08:23:34.792Z,99.90
2023-07-22T08:26:03.099Z,99.90
2023-07-22T08:28:32.561Z,99.90
2023-07-22T08:31:01.790Z,99.90
2023-07-22T08:33:39.814Z,99.90
2023-07-22T08:36:11.280Z,99.90
2023-07-22T08:38:39.586Z,99.90
2023-07-22T08:41:08.321Z,99.90
2023-07-22T08:43:41.287Z,99.90
2023-07-22T08:46:10.034Z,99.90
2023-07-22T08:48:41.209Z,99.90
2023-07-22T08:51:14.964Z,99.90
2023-07-22T08:53:45.721Z,99.90
2023-07-22T08:56:14.293Z,99.90
2023-07-22T08:58:44.710Z,99.90
2023-07-22T09:01:13.603Z,99.90
2023-07-22T09:03:42.970Z,99.90
2023-07-22T09:06:12.874Z,99.90
2023-07-22T09:08:41.541Z,99.90
2023-07-22T09:11:09.736Z,99.90
2023-07-22T09:13:40.418Z,99.90
2023-07-22T09:16:09.145Z,99.90
2023-07-22T09:18:37.382Z,99.90
2023-07-22T09:21:05.630Z,99.90
2023-07-22T09:23:39.886Z,99.90
2023-07-22T09:26:11.761Z,99.90
2023-07-22T09:28:50.999Z,99.90
2023-07-22T09:31:19.246Z,99.90
2023-07-22T09:33:47.503Z,99.90
2023-07-22T09:36:15.626Z,99.90
2023-07-22T09:38:45.309Z,99.90
2023-07-22T09:41:14.769Z,99.90
2023-07-22T09:43:42.915Z,99.90
2023-07-22T09:48:43.950Z,99.90
2023-07-22T09:51:16.526Z,99.90
2023-07-22T09:53:50.274Z,99.90
2023-07-22T09:56:18.314Z,99.90
2023-07-22T09:58:49.354Z,99.90
2023-07-22T10:01:22.166Z,99.90
2023-07-22T10:03:55.922Z,99.90
2023-07-22T10:06:26.376Z,99.90
2023-07-22T10:08:57.790Z,99.90
2023-07-22T10:11:29.297Z,99.90
2023-07-22T10:13:58.231Z,99.90
2023-07-22T10:16:27.999Z,99.90
2023-07-22T10:18:56.502Z,99.90
2023-07-22T10:21:25.776Z,99.90
2023-07-22T10:23:56.635Z,99.90
2023-07-22T10:26:40.511Z,99.90
2023-07-22T10:29:13.490Z,99.90
2023-07-22T10:31:41.712Z,99.90
2023-07-22T10:34:10.031Z,99.90
2023-07-22T10:36:38.447Z,99.90
2023-07-22T10:39:08.638Z,99.90
2023-07-22T10:41:41.281Z,99.90
2023-07-22T10:44:13.610Z,99.90
2023-07-22T10:46:44.903Z,99.90
2023-07-22T10:49:14.266Z,99.90
2023-07-22T10:51:43.139Z,99.90
2023-07-22T10:54:15.821Z,99.90
2023-07-22T10:56:45.000Z,99.90
2023-07-22T10:59:14.112Z,99.90
2023-07-22T11:01:45.983Z,99.90
2023-07-22T11:04:36.722Z,99.90
2023-07-22T11:07:11.420Z,99.90
2023-07-22T11:09:45.494Z,99.90
2023-07-22T11:12:21.679Z,99.90
2023-07-22T11:14:51.584Z,99.90
2023-07-22T11:17:21.021Z,99.90
2023-07-22T11:19:50.352Z,99.90
2023-07-22T11:22:18.862Z,99.90
2023-07-22T11:24:48.555Z,99.90
2023-07-22T11:27:17.348Z,99.90
2023-07-22T11:29:45.523Z,99.90
2023-07-22T11:32:18.658Z,99.90
2023-07-22T11:34:47.042Z,99.90
2023-07-22T11:37:16.209Z,99.90
2023-07-22T11:39:45.629Z,99.90
2023-07-22T11:42:15.102Z,98.50
2023-07-22T11:44:43.818Z,98.30
2023-07-22T11:47:13.114Z,98.60
2023-07-22T11:49:43.160Z,98.20
2023-07-22T11:52:13.165Z,98.50
2023-07-22T11:54:43.205Z,98.80
2023-07-22T11:57:16.177Z,99.10
2023-07-22T11:59:46.964Z,98.80
2023-07-22T12:02:16.371Z,98.80
2023-07-22T12:04:44.775Z,98.50
2023-07-22T12:07:25.500Z,98.20
2023-07-22T12:09:54.451Z,98.50
2023-07-22T12:12:33.290Z,98.50
2023-07-22T12:15:06.148Z,98.50
2023-07-22T12:17:47.037Z,98.40
2023-07-22T12:20:16.053Z,98.30
2023-07-22T12:22:45.191Z,97.40
2023-07-22T12:25:13.448Z,97.60
2023-07-22T12:27:42.895Z,97.80
2023-07-22T12:30:11.378Z,98.10
2023-07-22T12:32:40.144Z,97.30
2023-07-22T12:35:09.458Z,97.60
2023-07-22T12:37:38.378Z,97.60
2023-07-22T12:40:09.626Z,97.40
2023-07-22T12:42:38.324Z,97.60
2023-07-22T12:45:09.374Z,97.30
2023-07-22T12:47:38.028Z,96.30
2023-07-22T12:50:08.955Z,95.60
2023-07-22T12:52:40.013Z,95.60
2023-07-22T12:55:08.714Z,95.80
2023-07-22T12:57:36.752Z,95.30
2023-07-22T13:00:08.748Z,94.60
2023-07-22T13:02:38.402Z,95.10
2023-07-22T13:05:07.945Z,95.20
2023-07-22T13:07:36.020Z,95.40
2023-07-22T13:10:07.915Z,94.60
2023-07-22T13:12:36.046Z,94.20
2023-07-22T13:15:04.460Z,94.10
2023-07-22T13:17:33.285Z,94.00
2023-07-22T13:20:02.753Z,93.70
2023-07-22T13:22:30.820Z,93.80
2023-07-22T13:24:58.904Z,93.90
2023-07-22T13:27:27.025Z,93.90
2023-07-22T13:29:55.098Z,94.00
2023-07-22T13:32:23.177Z,94.00
2023-07-22T13:34:51.477Z,94.00
2023-07-22T13:37:21.169Z,94.00
2023-07-22T13:39:49.182Z,94.10
2023-07-22T13:42:17.363Z,94.10
2023-07-22T13:44:45.415Z,94.30
2023-07-22T13:47:13.697Z,94.20
2023-07-22T13:49:41.721Z,94.60
2023-07-22T13:52:09.886Z,94.20
2023-07-22T13:54:39.292Z,93.50
2023-07-22T13:57:08.521Z,93.70
2023-07-22T13:59:36.786Z,93.70
2023-07-22T14:02:05.382Z,93.80
2023-07-22T14:04:33.571Z,93.80
2023-07-22T14:07:01.745Z,93.60
2023-07-22T14:09:29.882Z,93.40
2023-07-22T14:11:59.480Z,93.70
2023-07-22T14:14:29.913Z,93.80
2023-07-22T14:16:58.271Z,94.00
2023-07-22T14:19:26.754Z,93.90
2023-07-22T14:21:54.851Z,94.00
2023-07-22T14:24:23.018Z,93.90
2023-07-22T14:26:51.153Z,93.90
2023-07-22T14:29:21.884Z,93.30
2023-07-22T14:31:50.003Z,92.80
2023-07-22T14:34:18.113Z,92.80
2023-07-22T14:36:46.167Z,92.60
2023-07-22T14:39:14.241Z,92.20
2023-07-22T14:41:44.211Z,92.20
2023-07-22T14:44:12.512Z,92.50
2023-07-22T14:46:41.989Z,92.70
2023-07-22T14:49:11.010Z,93.30
2023-07-22T14:51:39.220Z,93.30
2023-07-22T14:54:07.309Z,93.00
2023-07-22T14:56:35.406Z,92.40
2023-07-22T14:59:03.511Z,91.80
2023-07-22T15:01:39.715Z,91.90
2023-07-22T15:04:09.549Z,91.80
2023-07-22T15:06:38.021Z,91.60
2023-07-22T15:09:09.669Z,91.80
2023-07-22T15:11:38.614Z,92.20
2023-07-22T15:14:07.050Z,92.30
2023-07-22T15:16:35.627Z,92.60
2023-07-22T15:19:03.796Z,92.90
2023-07-22T15:21:33.266Z,93.00
2023-07-22T15:24:01.388Z,93.20
2023-07-22T15:26:29.473Z,93.20
2023-07-22T15:28:57.591Z,93.10
2023-07-22T15:31:26.132Z,92.50
2023-07-22T15:33:54.463Z,92.40
2023-07-22T15:36:22.516Z,92.30
2023-07-22T15:38:51.910Z,92.50
2023-07-22T15:41:20.039Z,92.50
2023-07-22T15:43:48.147Z,92.40
2023-07-22T15:46:16.223Z,92.50
2023-07-22T15:48:44.469Z,92.60
2023-07-22T15:51:12.619Z,92.90
2023-07-22T15:53:40.779Z,92.90
2023-07-22T15:56:10.807Z,93.30
2023-07-22T15:58:38.877Z,92.80
2023-07-22T16:01:06.986Z,92.50
2023-07-22T16:03:36.998Z,91.80
2023-07-22T16:06:12.585Z,91.80
2023-07-22T16:08:48.240Z,92.00
2023-07-22T16:11:17.721Z,91.60
2023-07-22T16:13:45.781Z,91.20
2023-07-22T16:16:13.913Z,91.30
2023-07-22T16:18:42.014Z,91.50
2023-07-22T16:21:10.419Z,91.50
2023-07-22T16:23:38.982Z,91.30
2023-07-22T16:26:08.613Z,91.30
2023-07-22T16:28:38.064Z,90.40
2023-07-22T16:31:06.146Z,90.50
2023-07-22T16:33:34.287Z,90.10
2023-07-22T16:36:02.432Z,89.50
2023-07-22T16:38:30.472Z,89.30
2023-07-22T16:40:58.537Z,88.50
2023-07-22T16:43:26.578Z,88.40
2023-07-22T16:45:56.098Z,88.40
2023-07-22T16:48:24.273Z,88.40
2023-07-22T16:50:52.332Z,88.50
2023-07-22T16:53:20.399Z,88.30
2023-07-22T16:55:48.625Z,87.60
2023-07-22T16:58:16.719Z,86.50
2023-07-22T17:00:48.694Z,84.40
2023-07-22T17:03:18.516Z,83.70
2023-07-22T17:05:46.687Z,83.40
2023-07-22T17:08:14.724Z,83.80
2023-07-22T17:10:42.765Z,84.00
2023-07-22T17:13:10.932Z,84.30
2023-07-22T17:15:39.245Z,84.50
2023-07-22T17:18:08.639Z,84.50
2023-07-22T17:20:38.123Z,84.70
2023-07-22T17:23:06.120Z,84.90
2023-07-22T17:25:34.292Z,85.40
2023-07-22T17:28:02.370Z,85.60
2023-07-22T17:30:30.533Z,85.80
2023-07-22T17:32:58.615Z,86.20
2023-07-22T17:35:26.686Z,86.30
2023-07-22T17:37:56.098Z,86.90
2023-07-22T17:40:26.734Z,86.80
2023-07-22T17:42:56.136Z,87.10
2023-07-22T17:45:24.538Z,87.30
2023-07-22T17:47:53.829Z,87.40
2023-07-22T17:50:22.715Z,87.30
2023-07-22T17:52:50.759Z,87.20
2023-07-22T17:55:20.388Z,87.40
2023-07-22T17:57:54.457Z,87.60
2023-07-22T18:00:22.751Z,87.50
2023-07-22T18:02:51.029Z,86.70
2023-07-22T18:05:19.359Z,87.00
2023-07-22T18:07:47.422Z,87.80
2023-07-22T18:10:15.537Z,88.40
2023-07-22T18:12:44.983Z,88.50
2023-07-22T18:15:13.103Z,87.90
2023-07-22T18:17:41.236Z,87.30
2023-07-22T18:20:10.288Z,87.40
2023-07-22T18:22:38.456Z,87.40
2023-07-22T18:25:08.089Z,87.60
2023-07-22T18:27:36.183Z,87.80
2023-07-22T18:30:06.309Z,88.00
2023-07-22T18:32:34.618Z,88.20
2023-07-22T18:35:02.730Z,88.60
2023-07-22T18:37:31.040Z,89.00
2023-07-22T18:39:59.097Z,89.30
2023-07-22T18:42:27.178Z,89.50
2023-07-22T18:44:57.748Z,89.80
2023-07-22T18:47:27.521Z,90.10
2023-07-22T18:49:55.646Z,90.20
2023-07-22T18:52:23.834Z,90.40
2023-07-22T18:54:51.874Z,90.50
2023-07-22T18:57:20.035Z,90.60
2023-07-22T18:59:48.068Z,90.80
2023-07-22T19:02:16.281Z,90.90
2023-07-22T19:04:45.945Z,91.00
2023-07-22T19:07:14.020Z,91.10
2023-07-22T19:09:42.257Z,91.20
2023-07-22T19:12:10.387Z,91.40
2023-07-22T19:14:38.888Z,91.60
2023-07-22T19:17:07.415Z,91.80
2023-07-22T19:19:35.524Z,92.00
2023-07-22T19:22:05.393Z,92.10
2023-07-22T19:24:33.503Z,92.30
2023-07-22T19:27:02.189Z,92.50
2023-07-22T19:29:31.393Z,92.70
2023-07-22T19:31:59.613Z,92.80
2023-07-22T19:34:27.832Z,93.00
2023-07-22T19:36:55.958Z,93.10
2023-07-22T19:39:25.361Z,93.30
2023-07-22T19:41:53.587Z,93.50
2023-07-22T19:44:21.678Z,93.50
2023-07-22T19:46:49.839Z,93.60
2023-07-22T19:49:17.930Z,93.70
2023-07-22T19:51:46.063Z,93.80
2023-07-22T19:54:14.086Z,94.00
2023-07-22T19:56:43.533Z,94.20
2023-07-22T19:59:11.590Z,94.20
2023-07-22T20:01:41.227Z,94.20
2023-07-22T20:04:09.355Z,94.30
2023-07-22T20:06:37.496Z,94.40
2023-07-22T20:09:05.778Z,94.50
2023-07-22T20:11:33.882Z,94.60
2023-07-22T20:14:05.721Z,94.80
2023-07-22T20:16:34.178Z,94.90
2023-07-22T20:19:02.347Z,94.90
2023-07-22T20:21:30.910Z,95.30
2023-07-22T20:23:58.982Z,95.10
2023-07-22T20:26:27.109Z,95.20
2023-07-22T20:28:55.173Z,95.20
2023-07-22T20:31:24.788Z,95.30
2023-07-22T20:33:53.016Z,95.40
2023-07-22T20:36:21.049Z,95.40
2023-07-22T20:38:49.089Z,95.50
2023-07-22T20:41:18.680Z,95.60
2023-07-22T20:43:47.965Z,95.60
2023-07-22T20:46:16.091Z,95.70
2023-07-22T20:48:45.557Z,95.70
2023-07-22T20:51:17.669Z,95.80
2023-07-22T20:53:45.799Z,95.80
2023-07-22T20:56:13.862Z,95.80
2023-07-22T20:58:41.992Z,95.90
2023-07-22T21:01:10.146Z,95.90
2023-07-22T21:03:38.392Z,95.90
2023-07-22T21:06:07.858Z,95.90
2023-07-22T21:08:36.857Z,96.00
2023-07-22T21:11:04.913Z,96.00
2023-07-22T21:13:33.010Z,96.00
2023-07-22T21:16:01.144Z,96.10
2023-07-22T21:18:29.259Z,96.10
2023-07-22T21:20:57.430Z,96.10
2023-07-22T21:23:26.901Z,96.10
2023-07-22T21:25:58.356Z,96.20
2023-07-22T21:28:26.606Z,96.30
2023-07-22T21:30:56.957Z,96.30
2023-07-22T21:33:25.130Z,96.30
2023-07-22T21:35:53.975Z,96.40
2023-07-22T21:38:22.595Z,96.50
2023-07-22T21:40:53.062Z,96.50
2023-07-22T21:43:21.705Z,96.60
2023-07-22T21:45:50.535Z,96.60
2023-07-22T21:48:18.714Z,96.60
2023-07-22T21:50:46.895Z,96.60
2023-07-22T21:53:15.209Z,96.60
2023-07-22T21:55:43.288Z,96.60
2023-07-22T21:58:12.745Z,96.70
2023-07-22T22:00:40.904Z,96.60
2023-07-22T22:03:11.078Z,96.70
2023-07-22T22:05:39.775Z,96.70
2023-07-22T22:08:07.963Z,96.70
2023-07-22T22:10:37.634Z,96.70
2023-07-22T22:13:05.984Z,96.70
2023-07-22T22:15:35.421Z,96.70
2023-07-22T22:18:03.632Z,96.70
2023-07-22T22:20:31.757Z,96.70
2023-07-22T22:23:00.143Z,96.80
2023-07-22T22:25:28.223Z,96.80
2023-07-22T22:27:56.311Z,96.80
2023-07-22T22:30:24.535Z,96.80
2023-07-22T22:32:53.992Z,96.80
2023-07-22T22:35:22.111Z,96.90
2023-07-22T22:37:50.179Z,96.90
2023-07-22T22:40:18.396Z,96.90
2023-07-22T22:42:46.507Z,96.80
2023-07-22T22:45:14.827Z,96.80
2023-07-22T22:47:43.009Z,96.70
2023-07-22T22:50:12.517Z,96.80
2023-07-22T22:52:40.591Z,96.80
2023-07-22T22:55:09.260Z,96.80
2023-07-22T22:57:37.345Z,96.80
2023-07-22T23:00:06.662Z,96.70
2023-07-22T23:02:38.081Z,96.80
2023-07-22T23:05:07.278Z,96.70
2023-07-22T23:07:36.818Z,96.80
2023-07-22T23:10:06.913Z,96.70
2023-07-22T23:12:38.243Z,96.80
2023-07-22T23:15:07.854Z,96.80
2023-07-22T23:17:35.890Z,96.90
2023-07-22T23:20:05.149Z,96.90
2023-07-22T23:22:33.330Z,96.90
2023-07-22T23:25:02.899Z,96.90
2023-07-22T23:27:31.762Z,96.90
2023-07-22T23:29:59.939Z,96.90
2023-07-22T23:32:28.031Z,96.90
2023-07-22T23:34:58.392Z,96.90
2023-07-22T23:37:26.518Z,96.90
2023-07-22T23:39:54.593Z,96.90
2023-07-22T23:42:24.065Z,96.90
2023-07-22T23:44:52.106Z,97.00
2023-07-22T23:47:20.236Z,97.00
2023-07-22T23:49:48.327Z,97.10
2023-07-22T23:52:16.415Z,97.40
2023-07-22T23:54:44.458Z,97.10
2023-07-22T23:57:12.516Z,97.10
2023-07-22T23:59:41.987Z,97.10
